100LL.CA
Aviation Fuel Pricing for Canadians
Please upgrade your browser - Tested with IE9, FireFox, Chrome, Safari

Fuel Airports Other Help
Prices Economy Info List METAR/TAF Kneeboard Help

Reference Airport: BAIE-COMEAU, QC
N 49 07 57  W 068 12 16
Provinces to show:

CYBC BAIE-COMEAU, QC
WEATHER
METARCYBC 221500Z AUTO 19005KT 150V220 9SM SCT130 19/13 A2999 RMK SLP159 DENSITY ALT 500FT
TAFTAF CYBC 221340Z 2214/2302 VRB03KT P6SM BKN160 FM221700 22010KT P6SM SCT070 TEMPO 2217/2224 P6SM -SHRA BKN070 BECMG 2300/2302 VRB03KT RMK FCST BASED ON AUTO OBS. NXT FCST BY 222000Z
OTHER SITES

FlightAware

FltPlan

Google Maps

SkyVector
FUEL
FBO 100LL
member
100LL
public
JETA MOGAS
Opr (2024-04-27)3.2002.200
Canada Flight Supplement - CYBC
(opens in new tab/window)


Please Send Updates!

Desktop Version ]  [ Mobile Version ]  [ Disclaimer ]